Time;durP1;ratioP1;P1;durP2;ratioP2;P2;SDS_P1;SDS_P2;PMS_P1;PMS_P2;Temp;Humidity;BMP_temperature;BMP_pressure;BME280_temperature;BME280_humidity;BME280_pressure;Samples;Min_cycle;Max_cycle;Signal;HPM_P1;HPM_P2
2022/09/16 00:00:43;;;;;;;5.07;2.78;;;21.60;99.90;;;;;;6152710;23;20028;-76
2022/09/16 00:03:10;;;;;;;6.32;3.00;;;21.50;99.90;;;;;;6154390;23;20016;-76
2022/09/16 00:05:48;;;;;;;4.72;2.72;;;21.50;99.90;;;;;;6152489;23;20006;-76
2022/09/16 00:08:14;;;;;;;3.22;2.63;;;21.50;99.90;;;;;;6177600;23;20010;-76
2022/09/16 00:10:42;;;;;;;7.25;3.10;;;21.50;99.90;;;;;;6152747;23;20016;-76
2022/09/16 00:13:08;;;;;;;7.78;2.85;;;21.30;99.90;;;;;;6154400;23;20005;-76
2022/09/16 00:15:34;;;;;;;6.75;2.63;;;21.30;99.90;;;;;;6154091;23;20011;-76
2022/09/16 00:17:59;;;;;;;6.47;2.78;;;21.30;99.90;;;;;;6153901;23;20384;-76
2022/09/16 00:20:26;;;;;;;7.55;2.55;;;21.30;99.90;;;;;;6154317;23;20025;-76
2022/09/16 00:22:52;;;;;;;5.68;2.13;;;21.30;99.90;;;;;;6154004;23;20033;-76
2022/09/16 00:25:18;;;;;;;9.15;2.78;;;21.30;99.90;;;;;;6154086;23;20008;-76
2022/09/16 00:27:46;;;;;;;6.60;2.60;;;21.30;99.90;;;;;;6152409;23;20009;-76
2022/09/16 00:30:12;;;;;;;6.40;2.80;;;21.30;99.90;;;;;;6152612;23;20009;-77
2022/09/16 00:32:37;;;;;;;7.45;2.70;;;21.30;99.90;;;;;;6153995;23;20335;-76
2022/09/16 00:35:03;;;;;;;6.43;2.60;;;21.30;99.90;;;;;;6177200;23;20052;-76
2022/09/16 00:37:31;;;;;;;6.18;2.53;;;21.30;99.90;;;;;;6154057;23;20057;-76
2022/09/16 00:39:57;;;;;;;4.00;2.70;;;21.30;99.90;;;;;;6154197;23;20051;-76
2022/09/16 00:42:22;;;;;;;3.63;2.70;;;21.30;99.90;;;;;;6153910;23;20005;-76
2022/09/16 00:44:53;;;;;;;3.53;2.47;;;21.20;99.90;;;;;;6154014;23;20088;-76
2022/09/16 00:47:22;;;;;;;10.15;2.92;;;21.20;99.90;;;;;;6153889;23;20010;-76
2022/09/16 00:49:49;;;;;;;8.18;2.97;;;21.10;99.90;;;;;;6154063;23;20012;-76
2022/09/16 00:52:16;;;;;;;8.52;3.08;;;21.10;99.90;;;;;;6151891;23;20013;-76
2022/09/16 00:54:42;;;;;;;4.07;2.50;;;21.10;99.90;;;;;;6153931;23;20002;-76
2022/09/16 00:57:11;;;;;;;11.45;2.78;;;21.10;99.90;;;;;;6153992;23;20258;-76
2022/09/16 00:59:50;;;;;;;4.78;2.75;;;21.10;99.90;;;;;;6154000;23;20076;-76
2022/09/16 01:02:19;;;;;;;6.28;2.60;;;21.10;99.90;;;;;;6153750;23;20006;-76
2022/09/16 01:04:58;;;;;;;4.03;3.17;;;21.10;99.90;;;;;;6152249;23;20010;-76
2022/09/16 01:07:36;;;;;;;4.75;2.60;;;21.10;99.90;;;;;;6153696;23;20025;-75
2022/09/16 01:10:03;;;;;;;6.80;2.80;;;21.10;99.90;;;;;;6152201;23;20457;-76
2022/09/16 01:12:31;;;;;;;5.18;2.33;;;21.10;99.90;;;;;;6153847;23;20006;-76
2022/09/16 01:14:58;;;;;;;4.32;2.53;;;21.20;99.90;;;;;;6153778;23;20001;-76
2022/09/16 01:17:39;;;;;;;7.72;2.40;;;21.10;99.90;;;;;;6177054;23;20008;-76
2022/09/16 01:20:26;;;;;;;4.70;2.35;;;21.20;99.90;;;;;;6153720;23;20005;-76
2022/09/16 01:23:11;;;;;;;3.05;2.13;;;21.10;99.90;;;;;;6153821;23;20059;-76
2022/09/16 01:25:51;;;;;;;4.55;2.78;;;21.10;99.90;;;;;;6153786;23;20006;-76
2022/09/16 01:28:54;;;;;;;2.80;2.50;;;21.10;99.90;;;;;;6153686;23;20453;-76
2022/09/16 01:31:34;;;;;;;7.85;2.88;;;21.10;99.90;;;;;;6153626;23;20469;-76
2022/09/16 01:34:03;;;;;;;4.97;2.55;;;21.20;99.90;;;;;;6153712;23;20004;-76
2022/09/16 01:36:34;;;;;;;7.63;2.85;;;21.10;99.90;;;;;;6153521;23;19998;-76
2022/09/16 01:39:09;;;;;;;3.72;2.63;;;21.10;99.90;;;;;;6153693;23;20002;-76
2022/09/16 01:41:44;;;;;;;3.40;2.75;;;21.00;99.90;;;;;;6153844;23;20493;-76
2022/09/16 01:44:26;;;;;;;4.00;2.35;;;20.90;99.90;;;;;;6153724;23;20311;-76
2022/09/16 01:47:03;;;;;;;4.68;2.70;;;21.00;99.90;;;;;;6153485;23;20027;-76
2022/09/16 01:50:08;;;;;;;4.65;2.63;;;20.90;99.90;;;;;;6153862;23;20025;-76
2022/09/16 01:53:10;;;;;;;4.75;3.03;;;20.90;99.90;;;;;;6142457;23;20445;-76
2022/09/16 01:55:41;;;;;;;;;;;20.90;99.90;;;;;;6153661;23;20446;-76
2022/09/16 01:58:42;;;;;;;3.75;2.50;;;20.90;99.90;;;;;;6153524;23;19909;-76
2022/09/16 02:01:15;;;;;;;2.65;2.40;;;20.80;99.90;;;;;;6153769;23;20056;-76
2022/09/16 02:03:44;;;;;;;3.55;2.40;;;20.80;99.90;;;;;;6155348;23;20002;-76
2022/09/16 02:06:17;;;;;;;8.98;2.45;;;20.70;99.90;;;;;;6155249;23;20092;-76
2022/09/16 02:08:55;;;;;;;5.22;2.53;;;20.80;99.90;;;;;;6155301;23;20002;-76
2022/09/16 02:11:23;;;;;;;4.88;2.65;;;20.80;99.90;;;;;;6155504;23;20013;-76
2022/09/16 02:14:04;;;;;;;3.30;2.25;;;20.70;99.90;;;;;;6155430;23;20064;-76
2022/09/16 02:16:36;;;;;;;3.05;2.25;;;20.70;99.90;;;;;;6155306;23;20002;-76
2022/09/16 02:19:09;;;;;;;4.20;2.75;;;20.70;99.90;;;;;;6154956;23;20001;-76
2022/09/16 02:21:37;;;;;;;4.07;2.72;;;20.70;99.90;;;;;;6153647;23;20426;-76
2022/09/16 02:24:07;;;;;;;3.20;2.60;;;20.70;99.90;;;;;;6155426;23;19997;-76
2022/09/16 02:26:41;;;;;;;3.88;2.72;;;20.60;99.90;;;;;;6153494;23;20005;-76
2022/09/16 02:29:16;;;;;;;6.10;2.38;;;20.60;99.90;;;;;;6155301;23;19998;-76
2022/09/16 02:31:43;;;;;;;6.47;2.65;;;20.60;99.90;;;;;;6155057;23;20056;-76
2022/09/16 02:34:19;;;;;;;2.50;2.35;;;20.60;99.90;;;;;;6178545;23;20033;-76
2022/09/16 02:36:50;;;;;;;4.40;2.60;;;20.60;99.90;;;;;;6155212;23;20006;-76
2022/09/16 02:39:21;;;;;;;4.43;2.47;;;20.60;99.90;;;;;;6153712;23;20008;-76
2022/09/16 02:41:48;;;;;;;4.88;2.80;;;20.60;99.90;;;;;;6155067;23;20028;-76
2022/09/16 02:44:14;;;;;;;5.05;3.17;;;20.50;99.90;;;;;;6155172;23;20005;-76
2022/09/16 02:47:07;;;;;;;5.15;2.67;;;20.50;99.90;;;;;;6155029;23;20481;-76
2022/09/16 02:49:56;;;;;;;4.28;2.60;;;20.50;99.90;;;;;;6153531;23;20012;-76
2022/09/16 02:52:45;;;;;;;4.18;2.55;;;20.50;99.90;;;;;;6155088;23;20096;-76
2022/09/16 02:55:19;;;;;;;4.72;2.72;;;20.50;99.90;;;;;;6177432;23;20187;-76
2022/09/16 02:57:45;;;;;;;3.25;2.85;;;20.50;99.90;;;;;;6153487;23;20006;-76
2022/09/16 03:00:11;;;;;;;4.63;3.55;;;20.50;99.90;;;;;;6177984;23;20012;-76
2022/09/16 03:02:37;;;;;;;7.38;2.88;;;20.50;99.90;;;;;;6154718;23;20068;-76
2022/09/16 03:05:04;;;;;;;3.97;3.05;;;20.50;99.90;;;;;;6153326;23;20016;-76
2022/09/16 03:07:30;;;;;;;10.23;3.08;;;20.50;99.90;;;;;;6154751;23;20117;-76
2022/09/16 03:09:56;;;;;;;3.92;2.70;;;20.50;99.90;;;;;;6153384;23;20441;-76
2022/09/16 03:12:32;;;;;;;3.47;2.50;;;20.50;99.90;;;;;;6154717;23;20056;-76
2022/09/16 03:15:22;;;;;;;4.30;2.40;;;20.60;99.90;;;;;;6154271;23;20012;-76
2022/09/16 03:17:59;;;;;;;5.45;2.92;;;20.60;99.90;;;;;;6154711;23;20081;-76
2022/09/16 03:21:06;;;;;;;3.47;2.67;;;20.50;99.90;;;;;;6153064;23;19998;-76
2022/09/16 03:24:02;;;;;;;3.72;2.45;;;20.50;99.90;;;;;;6151840;23;20010;-76
2022/09/16 03:26:49;;;;;;;2.58;2.38;;;20.50;99.90;;;;;;6145664;23;20011;-76
2022/09/16 03:29:31;;;;;;;5.18;3.00;;;20.50;99.90;;;;;;6154846;23;20037;-76
2022/09/16 03:32:11;;;;;;;7.18;2.92;;;20.50;99.90;;;;;;6154529;23;20374;-76
2022/09/16 03:34:51;;;;;;;3.05;2.65;;;20.50;99.90;;;;;;6154602;23;20001;-76
2022/09/16 03:37:19;;;;;;;6.75;2.40;;;20.50;99.90;;;;;;6153034;23;20002;-76
2022/09/16 03:39:52;;;;;;;4.05;2.60;;;20.50;99.90;;;;;;6154558;23;20005;-76
2022/09/16 03:42:18;;;;;;;6.22;2.80;;;20.50;99.90;;;;;;6154493;23;20431;-76
2022/09/16 03:44:44;;;;;;;5.28;3.30;;;20.40;99.90;;;;;;6152872;23;20010;-76
2022/09/16 03:47:10;;;;;;;3.65;2.15;;;20.40;99.90;;;;;;6152819;23;20033;-76
2022/09/16 03:49:36;;;;;;;6.85;2.80;;;20.40;99.90;;;;;;6154596;23;20056;-76
2022/09/16 03:52:04;;;;;;;3.67;3.00;;;20.50;99.90;;;;;;6177685;23;20385;-76
2022/09/16 03:54:30;;;;;;;5.70;2.83;;;20.50;99.90;;;;;;6154468;23;20002;-76
2022/09/16 03:56:56;;;;;;;3.25;2.60;;;20.50;99.90;;;;;;6154077;23;20021;-76
2022/09/16 03:59:22;;;;;;;3.20;2.40;;;20.60;99.90;;;;;;6152886;23;20335;-76
2022/09/16 04:01:48;;;;;;;5.80;2.40;;;20.60;99.90;;;;;;6154299;23;20005;-76
2022/09/16 04:04:14;;;;;;;4.80;2.53;;;20.50;99.90;;;;;;6154429;23;20001;-76
2022/09/16 04:06:39;;;;;;;4.78;2.55;;;20.50;99.90;;;;;;6154211;23;20009;-76
2022/09/16 04:09:06;;;;;;;3.70;2.63;;;20.50;99.90;;;;;;6154125;23;20028;-76
2022/09/16 04:11:33;;;;;;;5.93;2.95;;;20.60;99.90;;;;;;6154318;23;20009;-76
2022/09/16 04:13:59;;;;;;;4.18;2.85;;;20.60;99.90;;;;;;6152436;23;20013;-76
2022/09/16 04:16:26;;;;;;;3.90;2.88;;;20.60;99.90;;;;;;6154241;23;20072;-76
2022/09/16 04:18:51;;;;;;;3.72;2.75;;;20.60;99.90;;;;;;6154244;23;19997;-76
2022/09/16 04:21:18;;;;;;;4.35;3.15;;;20.60;99.90;;;;;;6154274;23;20008;-76
2022/09/16 04:23:44;;;;;;;5.47;2.65;;;20.60;99.90;;;;;;6154088;23;20060;-76
2022/09/16 04:26:10;;;;;;;4.18;2.70;;;20.50;99.90;;;;;;6153684;23;20010;-76
2022/09/16 04:28:36;;;;;;;6.45;2.50;;;20.50;99.90;;;;;;6153972;23;20072;-76
2022/09/16 04:31:09;;;;;;;4.05;2.63;;;20.50;99.90;;;;;;6152702;23;20044;-76
2022/09/16 04:33:35;;;;;;;7.82;2.90;;;20.50;99.90;;;;;;6154164;23;20001;-76
2022/09/16 04:36:07;;;;;;;3.83;2.80;;;20.50;99.90;;;;;;6153775;23;20051;-76
2022/09/16 04:38:37;;;;;;;4.07;2.70;;;20.50;99.90;;;;;;6152418;23;20005;-76
2022/09/16 04:41:13;;;;;;;6.25;2.88;;;20.40;99.90;;;;;;6151004;23;20012;-76
2022/09/16 04:43:39;;;;;;;7.40;2.75;;;20.40;99.90;;;;;;6152760;23;20030;-76
2022/09/16 04:46:08;;;;;;;6.43;3.30;;;20.40;99.90;;;;;;6152592;23;20342;-76
2022/09/16 04:48:34;;;;;;;5.85;2.97;;;20.40;99.90;;;;;;6151226;23;20060;-76
2022/09/16 04:51:09;;;;;;;11.15;3.38;;;20.40;99.90;;;;;;6152472;23;20029;-76
2022/09/16 04:53:37;;;;;;;3.95;2.90;;;20.30;99.90;;;;;;6175692;23;20525;-76
2022/09/16 04:56:09;;;;;;;5.93;3.28;;;20.30;99.90;;;;;;6152346;23;20017;-76
2022/09/16 04:58:35;;;;;;;;;;;20.30;99.90;;;;;;6151673;23;20032;-76
2022/09/16 05:01:06;;;;;;;4.50;2.88;;;20.30;99.90;;;;;;6152668;23;19907;-76
2022/09/16 05:03:32;;;;;;;7.72;2.78;;;20.20;99.90;;;;;;6152488;23;20028;-76
2022/09/16 05:06:06;;;;;;;5.30;3.15;;;20.30;99.90;;;;;;6152765;23;20056;-76
2022/09/16 05:08:34;;;;;;;5.35;2.90;;;20.20;99.90;;;;;;6153658;23;20096;-76
2022/09/16 05:11:11;;;;;;;7.40;3.20;;;20.30;99.90;;;;;;6153903;23;20508;-76
2022/09/16 05:13:37;;;;;;;6.28;3.05;;;20.30;99.90;;;;;;6153877;23;20092;-76
2022/09/16 05:16:11;;;;;;;3.13;2.60;;;20.30;99.90;;;;;;6152269;23;20001;-76
2022/09/16 05:18:38;;;;;;;5.35;3.15;;;20.30;99.90;;;;;;6152231;23;20327;-76
2022/09/16 05:21:07;;;;;;;4.15;2.85;;;20.30;99.90;;;;;;6153746;23;20024;-76
2022/09/16 05:23:34;;;;;;;5.50;3.15;;;20.30;99.90;;;;;;6151510;23;20012;-76
2022/09/16 05:26:05;;;;;;;7.63;2.80;;;20.40;99.90;;;;;;6150834;23;20020;-76
2022/09/16 05:28:32;;;;;;;4.55;3.10;;;20.40;99.90;;;;;;6152256;23;20485;-76
2022/09/16 05:31:14;;;;;;;8.48;2.83;;;20.40;99.90;;;;;;6152035;23;20016;-76
2022/09/16 05:33:41;;;;;;;6.45;2.85;;;20.40;99.90;;;;;;6150136;23;20088;-76
2022/09/16 05:36:12;;;;;;;9.00;3.47;;;20.40;99.90;;;;;;6151062;23;20013;-76
2022/09/16 05:38:38;;;;;;;4.63;3.38;;;20.40;99.90;;;;;;6151429;23;20002;-76
2022/09/16 05:41:05;;;;;;;4.75;3.38;;;20.40;99.90;;;;;;6151843;23;20002;-76
2022/09/16 05:43:31;;;;;;;5.13;3.40;;;20.40;99.90;;;;;;6153355;23;20009;-76
2022/09/16 05:45:58;;;;;;;4.93;2.97;;;20.50;99.90;;;;;;6153250;23;20036;-76
2022/09/16 05:48:24;;;;;;;11.40;3.65;;;20.50;99.90;;;;;;6154708;23;20066;-76
2022/09/16 05:51:04;;;;;;;9.27;3.60;;;20.50;99.90;;;;;;6155513;23;20006;-76
2022/09/16 05:53:31;;;;;;;4.88;3.10;;;20.50;99.90;;;;;;6155561;23;20013;-76
2022/09/16 05:56:09;;;;;;;6.45;3.33;;;20.60;99.90;;;;;;6155104;23;20076;-76
2022/09/16 05:58:35;;;;;;;5.80;3.60;;;20.60;99.90;;;;;;6154088;23;20173;-76
2022/09/16 06:01:07;;;;;;;10.60;3.45;;;20.70;99.90;;;;;;6154086;23;20013;-76
2022/09/16 06:03:33;;;;;;;8.18;3.38;;;20.70;99.90;;;;;;6155678;23;20002;-76
2022/09/16 06:06:04;;;;;;;6.38;2.97;;;20.70;99.90;;;;;;6155308;23;20009;-76
2022/09/16 06:08:32;;;;;;;5.20;3.70;;;20.80;99.90;;;;;;6155545;23;20345;-77
2022/09/16 06:11:02;;;;;;;6.03;3.28;;;20.90;99.90;;;;;;6155382;23;20005;-76
2022/09/16 06:13:28;;;;;;;5.57;3.22;;;20.90;99.90;;;;;;6153511;23;20069;-76
2022/09/16 06:15:54;;;;;;;8.50;3.40;;;21.00;99.90;;;;;;6153399;23;20060;-76
2022/09/16 06:18:20;;;;;;;4.07;3.60;;;21.00;99.90;;;;;;6153093;23;20370;-76
2022/09/16 06:20:47;;;;;;;5.15;3.40;;;21.10;99.90;;;;;;6154346;23;20174;-76
2022/09/16 06:23:13;;;;;;;7.93;3.47;;;21.10;99.90;;;;;;6154899;23;20061;-76
2022/09/16 06:25:39;;;;;;;7.03;3.53;;;21.10;99.90;;;;;;6153564;23;20006;-76
2022/09/16 06:28:05;;;;;;;7.78;3.70;;;21.10;99.90;;;;;;6153652;23;20338;-76
2022/09/16 06:30:31;;;;;;;4.75;3.40;;;21.20;99.90;;;;;;6153553;23;20338;-76
2022/09/16 06:32:57;;;;;;;5.53;3.88;;;21.20;99.90;;;;;;6155181;23;20013;-76
2022/09/16 06:35:22;;;;;;;6.65;3.80;;;21.30;99.90;;;;;;6177410;23;20020;-75
2022/09/16 06:37:48;;;;;;;10.05;4.18;;;21.30;99.90;;;;;;6154450;23;20077;-76
2022/09/16 06:40:14;;;;;;;5.45;3.22;;;21.40;99.90;;;;;;6153917;23;20004;-75
2022/09/16 06:42:40;;;;;;;8.80;3.88;;;21.40;99.90;;;;;;6155184;23;20006;-75
2022/09/16 06:45:06;;;;;;;5.68;3.20;;;21.50;99.90;;;;;;6154846;23;20426;-76
2022/09/16 06:47:32;;;;;;;7.47;3.67;;;21.60;99.90;;;;;;6155231;23;20002;-76
2022/09/16 06:50:01;;;;;;;3.58;3.00;;;21.60;99.90;;;;;;6154492;23;20085;-75
2022/09/16 06:52:27;;;;;;;8.70;3.63;;;21.70;99.90;;;;;;6155051;23;20084;-75
2022/09/16 06:54:53;;;;;;;5.63;3.47;;;21.80;99.90;;;;;;6154667;23;20280;-76
2022/09/16 06:57:21;;;;;;;7.50;3.92;;;21.80;99.90;;;;;;6153440;23;20020;-76
2022/09/16 06:59:48;;;;;;;5.90;3.88;;;21.80;99.90;;;;;;6154851;23;19998;-76
2022/09/16 07:02:14;;;;;;;6.65;3.10;;;21.90;99.90;;;;;;6155076;23;20005;-76
2022/09/16 07:04:39;;;;;;;8.50;3.92;;;21.90;99.90;;;;;;6154688;23;20092;-76
2022/09/16 07:07:06;;;;;;;6.57;4.20;;;21.90;99.90;;;;;;6153040;23;20010;-76
2022/09/16 07:09:31;;;;;;;7.60;3.67;;;22.00;99.90;;;;;;6154906;23;20433;-84
2022/09/16 07:11:58;;;;;;;7.10;3.90;;;22.00;99.90;;;;;;6155146;23;20053;-84
2022/09/16 07:14:24;;;;;;;6.68;3.80;;;22.10;99.90;;;;;;6154747;23;20005;-83
2022/09/16 07:16:51;;;;;;;4.80;3.40;;;22.10;99.90;;;;;;6154939;23;20010;-84
2022/09/16 07:19:16;;;;;;;5.72;3.63;;;22.10;99.90;;;;;;6155000;23;20109;-84
2022/09/16 07:21:42;;;;;;;6.70;3.88;;;22.20;99.90;;;;;;6154720;23;20045;-84
2022/09/16 07:24:11;;;;;;;10.35;4.68;;;22.20;99.90;;;;;;6153290;23;20001;-84
2022/09/16 07:26:39;;;;;;;8.02;3.95;;;22.30;99.90;;;;;;6154861;23;20005;-84
2022/09/16 07:29:08;;;;;;;10.30;6.50;;;22.30;99.90;;;;;;6154517;23;20001;-84
2022/09/16 07:31:36;;;;;;;11.43;4.88;;;22.40;99.90;;;;;;6153034;23;20016;-83
2022/09/16 07:34:04;;;;;;;6.63;3.95;;;22.40;99.90;;;;;;6154679;23;19998;-83
2022/09/16 07:36:33;;;;;;;10.65;4.13;;;22.50;99.90;;;;;;6154765;23;20006;-84
2022/09/16 07:38:59;;;;;;;8.85;3.97;;;22.40;99.90;;;;;;6154467;23;20029;-84
2022/09/16 07:41:27;;;;;;;7.80;4.28;;;22.50;99.90;;;;;;6153016;23;20320;-83
2022/09/16 07:43:55;;;;;;;6.35;4.22;;;22.50;99.90;;;;;;6152516;23;20084;-84
2022/09/16 07:46:20;;;;;;;8.10;3.65;;;22.60;99.90;;;;;;6152173;23;20008;-83
2022/09/16 07:48:48;;;;;;;8.73;4.18;;;22.60;99.90;;;;;;6152082;23;20002;-84
2022/09/16 07:51:19;;;;;;;7.22;4.07;;;22.70;99.90;;;;;;6152185;23;20407;-83
2022/09/16 07:53:45;;;;;;;13.00;4.28;;;22.70;99.90;;;;;;6152049;23;20378;-83
2022/09/16 07:56:12;;;;;;;11.73;3.85;;;22.80;99.90;;;;;;6151985;23;20037;-83
2022/09/16 07:58:40;;;;;;;7.43;4.22;;;22.80;99.90;;;;;;6153462;23;20005;-83
2022/09/16 08:01:07;;;;;;;9.02;3.80;;;22.80;99.90;;;;;;6154241;23;20414;-83
2022/09/16 08:03:37;;;;;;;11.70;4.00;;;22.90;99.90;;;;;;6152717;23;20014;-83
2022/09/16 08:06:08;;;;;;;10.63;4.47;;;22.90;99.90;;;;;;6154375;23;20084;-83
2022/09/16 08:08:34;;;;;;;10.88;3.75;;;22.90;99.90;;;;;;6154344;23;20005;-83
2022/09/16 08:11:00;;;;;;;13.07;3.90;;;22.90;99.90;;;;;;6154516;23;20010;-84
2022/09/16 08:13:28;;;;;;;9.75;3.75;;;22.90;99.90;;;;;;6152463;23;20385;-83
2022/09/16 08:15:54;;;;;;;7.65;3.55;;;22.90;99.90;;;;;;6153863;23;20423;-83
2022/09/16 08:18:20;;;;;;;6.53;3.70;;;22.80;99.90;;;;;;6154278;23;20002;-83
2022/09/16 08:20:47;;;;;;;6.90;3.45;;;22.80;99.90;;;;;;6154176;23;20072;-83
2022/09/16 08:23:13;;;;;;;10.95;3.28;;;22.90;99.90;;;;;;6152629;23;20006;-84
2022/09/16 08:25:41;;;;;;;10.00;3.45;;;22.90;99.90;;;;;;6154161;23;20005;-83
2022/09/16 08:28:12;;;;;;;19.90;3.50;;;22.90;99.90;;;;;;6154275;23;20001;-83
2022/09/16 08:30:38;;;;;;;7.35;3.72;;;23.00;99.90;;;;;;6154297;23;20002;-83
2022/09/16 08:33:04;;;;;;;5.82;3.30;;;23.00;99.90;;;;;;6154024;23;20012;-83
2022/09/16 08:35:29;;;;;;;5.82;3.10;;;22.90;99.90;;;;;;6153994;23;20068;-82
2022/09/16 08:37:56;;;;;;;9.13;3.33;;;22.90;99.90;;;;;;6154106;23;20005;-83
2022/09/16 08:40:24;;;;;;;9.68;3.00;;;23.00;99.90;;;;;;6154012;23;20002;-83
2022/09/16 08:43:00;;;;;;;7.82;3.30;;;23.00;99.90;;;;;;6153819;23;20029;-84
2022/09/16 08:45:51;;;;;;;6.15;3.42;;;23.10;99.90;;;;;;6153845;23;20009;-83
2022/09/16 08:48:37;;;;;;;5.65;3.53;;;23.20;99.90;;;;;;6154091;23;20434;-83
2022/09/16 08:51:05;;;;;;;8.38;3.42;;;23.30;99.90;;;;;;6153965;23;20009;-83
2022/09/16 08:53:39;;;;;;;7.10;3.35;;;23.30;99.90;;;;;;6153990;23;20445;-84
2022/09/16 08:56:14;;;;;;;5.78;3.22;;;23.40;99.90;;;;;;6151749;23;20013;-76
2022/09/16 08:58:43;;;;;;;7.43;3.88;;;23.40;99.90;;;;;;6147399;23;20002;-76
2022/09/16 09:01:31;;;;;;;8.43;3.70;;;23.60;99.90;;;;;;6148148;23;20001;-76
2022/09/16 09:03:57;;;;;;;7.05;3.55;;;23.60;99.90;;;;;;6148800;23;20012;-76
2022/09/16 09:06:50;;;;;;;5.45;3.28;;;23.70;99.90;;;;;;6148616;23;20033;-76
2022/09/16 09:09:35;;;;;;;8.68;3.10;;;23.70;99.90;;;;;;6148354;23;20002;-76
2022/09/16 09:12:13;;;;;;;14.18;3.38;;;23.80;99.90;;;;;;6145962;23;20009;-76
2022/09/16 09:15:07;;;;;;;9.65;4.07;;;23.80;99.90;;;;;;6146608;23;20427;-76
2022/09/16 09:17:41;;;;;;;11.63;4.07;;;23.80;99.90;;;;;;6149264;23;20002;-76
2022/09/16 09:20:44;;;;;;;4.80;3.13;;;23.80;99.90;;;;;;6149792;23;20072;-77
2022/09/16 09:23:42;;;;;;;9.23;3.42;;;24.00;99.90;;;;;;6148394;23;20033;-77
2022/09/16 09:26:40;;;;;;;4.03;2.78;;;24.00;99.90;;;;;;6171015;23;20036;-77
2022/09/16 09:29:32;;;;;;;5.95;3.22;;;24.00;99.90;;;;;;6148193;23;20002;-76
2022/09/16 09:32:11;;;;;;;5.57;2.80;;;24.10;99.90;;;;;;6137133;23;20017;-77
2022/09/16 09:35:04;;;;;;;8.68;3.40;;;24.10;99.90;;;;;;6147497;23;20001;-77
2022/09/16 09:37:57;;;;;;;6.55;3.33;;;24.10;99.90;;;;;;6147520;23;20115;-76
2022/09/16 09:40:36;;;;;;;7.05;3.05;;;24.20;99.90;;;;;;6147671;23;20052;-77
2022/09/16 09:43:17;;;;;;;9.00;2.80;;;24.20;99.90;;;;;;6146219;23;20016;-76
2022/09/16 09:46:00;;;;;;;6.85;2.67;;;24.20;99.90;;;;;;6147717;23;20010;-76
2022/09/16 09:48:39;;;;;;;6.72;3.03;;;24.20;99.90;;;;;;6146683;23;20006;-76
2022/09/16 09:51:32;;;;;;;5.72;2.90;;;24.20;99.90;;;;;;6145661;23;20025;-77
2022/09/16 09:54:04;;;;;;;8.13;3.20;;;24.20;99.90;;;;;;6139947;23;20017;-76
2022/09/16 09:56:38;;;;;;;;;;;24.20;99.90;;;;;;6146670;23;20025;-75
2022/09/16 09:59:23;;;;;;;6.45;2.85;;;24.30;99.90;;;;;;6171067;23;19955;-75
2022/09/16 10:01:54;;;;;;;12.32;3.22;;;24.40;99.90;;;;;;6146366;23;20013;-76
2022/09/16 10:04:19;;;;;;;9.38;3.03;;;24.50;99.90;;;;;;6148875;23;20006;-76
2022/09/16 10:06:46;;;;;;;3.35;2.45;;;24.60;99.90;;;;;;6146321;23;20081;-77
2022/09/16 10:09:15;;;;;;;16.13;2.67;;;24.70;99.90;;;;;;6145805;23;20016;-76
2022/09/16 10:11:50;;;;;;;8.25;3.33;;;24.80;99.90;;;;;;6148813;23;20008;-76
2022/09/16 10:14:36;;;;;;;9.90;3.38;;;24.80;99.90;;;;;;6148905;23;20335;-76
2022/09/16 10:17:15;;;;;;;8.55;3.50;;;24.80;99.90;;;;;;6148181;23;20021;-76
2022/09/16 10:19:54;;;;;;;7.03;3.45;;;24.80;99.90;;;;;;6147969;23;20005;-76
2022/09/16 10:22:25;;;;;;;6.60;3.20;;;24.90;99.90;;;;;;6148050;23;20009;-76
2022/09/16 10:24:57;;;;;;;6.85;3.35;;;24.90;99.90;;;;;;6149904;23;20093;-77
2022/09/16 10:27:34;;;;;;;9.05;2.85;;;24.90;99.90;;;;;;6150497;23;20395;-75
2022/09/16 10:30:14;;;;;;;6.43;2.85;;;25.10;99.90;;;;;;6153436;23;20337;-76
2022/09/16 10:32:57;;;;;;;9.38;2.90;;;25.00;99.90;;;;;;6153767;23;20013;-76
2022/09/16 10:35:29;;;;;;;7.43;3.75;;;25.10;99.90;;;;;;6155301;23;20001;-76
2022/09/16 10:37:56;;;;;;;6.03;3.03;;;25.20;99.90;;;;;;6155244;23;20032;-77
2022/09/16 10:40:22;;;;;;;8.63;3.40;;;25.20;99.90;;;;;;6153727;23;20053;-77
2022/09/16 10:42:50;;;;;;;8.77;3.20;;;25.20;99.90;;;;;;6155177;23;20016;-77
2022/09/16 10:45:26;;;;;;;9.65;3.20;;;25.30;99.90;;;;;;6153513;23;20063;-76
2022/09/16 10:47:58;;;;;;;6.55;3.05;;;25.30;99.90;;;;;;6154935;23;20008;-77
2022/09/16 10:50:24;;;;;;;;;;;25.50;99.90;;;;;;6154125;23;20089;-77
2022/09/16 10:52:51;;;;;;;10.32;3.78;;;25.60;99.90;;;;;;6154924;23;19912;-76
2022/09/16 10:55:37;;;;;;;7.15;3.00;;;25.60;99.90;;;;;;6154923;23;20013;-77
2022/09/16 10:58:16;;;;;;;10.05;3.22;;;25.70;99.90;;;;;;6155208;23;20001;-76
2022/09/16 11:01:03;;;;;;;5.90;3.10;;;25.70;99.90;;;;;;6154813;23;20323;-77
2022/09/16 11:04:20;;;;;;;3.72;3.22;;;25.90;99.90;;;;;;6154290;23;20002;-77
2022/09/16 11:07:10;;;;;;;9.27;2.97;;;25.90;99.90;;;;;;6115897;23;20457;-77
2022/09/16 11:10:06;;;;;;;8.02;3.33;;;25.80;99.90;;;;;;6153545;23;20064;-77
2022/09/16 11:12:59;;;;;;;10.93;3.40;;;25.80;99.90;;;;;;6154810;23;20005;-77
2022/09/16 11:15:38;;;;;;;6.45;3.08;;;25.80;99.90;;;;;;6153223;23;20422;-77
2022/09/16 11:18:22;;;;;;;5.28;3.45;;;25.70;99.90;;;;;;6153162;23;20149;-77
2022/09/16 11:21:06;;;;;;;6.47;3.33;;;25.90;99.90;;;;;;6154584;23;20338;-77
2022/09/16 11:23:31;;;;;;;5.15;2.92;;;25.90;99.90;;;;;;6178145;23;20460;-77
2022/09/16 11:26:15;;;;;;;6.68;3.25;;;25.90;99.90;;;;;;6154617;23;20080;-77
2022/09/16 11:28:53;;;;;;;5.43;3.00;;;26.00;99.90;;;;;;6154626;23;20001;-77
2022/09/16 11:31:30;;;;;;;6.90;2.90;;;26.00;99.90;;;;;;6154829;23;20085;-77
2022/09/16 11:34:09;;;;;;;10.32;3.88;;;26.10;99.90;;;;;;6154381;23;20037;-77
2022/09/16 11:37:04;;;;;;;7.75;3.15;;;26.00;99.90;;;;;;6154724;23;20004;-77
2022/09/16 11:39:37;;;;;;;4.63;2.45;;;26.10;99.90;;;;;;6125927;23;20434;-76
2022/09/16 11:42:25;;;;;;;11.23;3.25;;;26.30;99.90;;;;;;6178014;23;20012;-76
2022/09/16 11:45:00;;;;;;;9.35;3.28;;;26.30;99.90;;;;;;6136230;23;20009;-77
2022/09/16 11:47:47;;;;;;;6.28;2.72;;;26.30;99.90;;;;;;6153134;23;20135;-76
2022/09/16 11:50:43;;;;;;;5.30;2.97;;;26.40;99.90;;;;;;6154433;23;20008;-77
2022/09/16 11:53:46;;;;;;;10.73;3.45;;;26.40;99.90;;;;;;6154634;23;20377;-77
2022/09/16 11:56:18;;;;;;;15.50;3.53;;;26.40;99.90;;;;;;6152773;23;20021;-77
2022/09/16 11:58:51;;;;;;;7.85;3.28;;;26.40;99.90;;;;;;6154538;23;20009;-77
2022/09/16 12:01:43;;;;;;;3.35;2.55;;;26.40;99.90;;;;;;6154615;23;20009;-77
2022/09/16 12:04:30;;;;;;;10.02;2.92;;;26.30;99.90;;;;;;6154253;23;20059;-77
2022/09/16 12:07:25;;;;;;;9.80;3.30;;;26.30;99.90;;;;;;6153933;23;20100;-77
2022/09/16 12:09:56;;;;;;;11.85;2.92;;;26.30;99.90;;;;;;6156048;23;20033;-76
2022/09/16 12:12:33;;;;;;;10.50;3.83;;;26.40;99.90;;;;;;6155941;23;20048;-76
2022/09/16 12:15:16;;;;;;;11.02;4.10;;;26.40;99.90;;;;;;6155911;23;19998;-77
2022/09/16 12:17:52;;;;;;;4.10;2.92;;;26.40;99.90;;;;;;6155833;23;20446;-77
2022/09/16 12:20:29;;;;;;;9.05;2.80;;;26.40;99.90;;;;;;6155851;23;20433;-77
2022/09/16 12:23:06;;;;;;;5.90;2.33;;;26.50;99.90;;;;;;6154309;23;20014;-77
2022/09/16 12:25:46;;;;;;;6.05;2.80;;;26.60;99.90;;;;;;6155852;23;20032;-77
2022/09/16 12:28:24;;;;;;;7.10;2.08;;;26.90;99.90;;;;;;6155983;23;20080;-77
2022/09/16 12:31:18;;;;;;;5.75;2.80;;;26.90;99.90;;;;;;6179054;23;20012;-77
2022/09/16 12:33:55;;;;;;;5.85;2.45;;;27.10;99.90;;;;;;6147300;23;20017;-77
2022/09/16 12:36:29;;;;;;;8.43;2.85;;;27.20;99.90;;;;;;6155702;23;20004;-77
2022/09/16 12:38:58;;;;;;;7.78;2.40;;;27.20;99.90;;;;;;6155859;23;20338;-77
2022/09/16 12:41:45;;;;;;;4.60;2.53;;;27.30;99.90;;;;;;6179003;23;20088;-77
2022/09/16 12:44:10;;;;;;;7.28;2.78;;;27.30;99.90;;;;;;6153942;23;20006;-77
2022/09/16 12:47:11;;;;;;;6.20;2.25;;;27.30;99.90;;;;;;6154720;23;20529;-76
2022/09/16 12:50:10;;;;;;;4.38;2.45;;;27.50;99.90;;;;;;6155354;23;19998;-76
2022/09/16 12:53:17;;;;;;;6.20;2.85;;;27.50;99.90;;;;;;6153403;23;20005;-76
2022/09/16 12:55:52;;;;;;;3.85;2.30;;;27.60;99.90;;;;;;6106078;23;20084;-76
2022/09/16 12:58:38;;;;;;;6.10;2.30;;;27.60;99.90;;;;;;6155259;23;20024;-77
2022/09/16 13:01:24;;;;;;;9.95;3.03;;;27.70;99.90;;;;;;6153373;23;20009;-77
2022/09/16 13:03:55;;;;;;;6.50;2.50;;;27.70;99.90;;;;;;6155330;23;20496;-77
2022/09/16 13:06:32;;;;;;;8.73;3.55;;;27.80;99.90;;;;;;6155703;23;20006;-77
2022/09/16 13:09:21;;;;;;;4.80;2.50;;;27.80;99.90;;;;;;6153709;23;20013;-77
2022/09/16 13:12:06;;;;;;;9.95;2.95;;;27.90;99.90;;;;;;6152614;23;20009;-77
2022/09/16 13:14:45;;;;;;;5.70;2.17;;;28.00;99.90;;;;;;6152690;23;20315;-77
2022/09/16 13:17:11;;;;;;;11.88;2.55;;;27.90;99.90;;;;;;6152983;23;20001;-77
2022/09/16 13:19:40;;;;;;;9.18;2.85;;;27.90;99.90;;;;;;6154495;23;20025;-76